sensor_id;sensor_type;location;lat;lon;timestamp;pressure;altitude;pressure_sealevel;temperature;humidity
64683;BME280;51107;47.652;19.016;2023-06-22T00:00:34;100120.97;;;21.02;100.00
64683;BME280;51107;47.652;19.016;2023-06-22T00:03:02;100123.84;;;20.94;100.00
64683;BME280;51107;47.652;19.016;2023-06-22T00:05:31;100122.88;;;20.82;100.00
64683;BME280;51107;47.652;19.016;2023-06-22T00:08:03;100106.78;;;20.83;100.00
64683;BME280;51107;47.652;19.016;2023-06-22T00:10:32;100102.13;;;20.79;100.00
64683;BME280;51107;47.652;19.016;2023-06-22T00:13:01;100106.25;;;20.48;100.00
64683;BME280;51107;47.652;19.016;2023-06-22T00:15:29;100108.91;;;20.48;100.00
64683;BME280;51107;47.652;19.016;2023-06-22T00:17:58;100107.09;;;20.48;100.00
64683;BME280;51107;47.652;19.016;2023-06-22T00:20:27;100101.59;;;20.36;100.00
64683;BME280;51107;47.652;19.016;2023-06-22T00:22:59;100093.63;;;20.50;100.00
64683;BME280;51107;47.652;19.016;2023-06-22T00:25:28;100097.38;;;20.22;100.00
64683;BME280;51107;47.652;19.016;2023-06-22T00:27:56;100088.22;;;20.18;100.00
64683;BME280;51107;47.652;19.016;2023-06-22T00:30:24;100091.03;;;20.23;100.00
64683;BME280;51107;47.652;19.016;2023-06-22T00:32:53;100085.31;;;20.33;100.00
64683;BME280;51107;47.652;19.016;2023-06-22T00:35:22;100079.03;;;20.20;100.00
64683;BME280;51107;47.652;19.016;2023-06-22T00:37:50;100085.16;;;20.14;100.00
64683;BME280;51107;47.652;19.016;2023-06-22T00:40:26;100083.31;;;20.15;100.00
64683;BME280;51107;47.652;19.016;2023-06-22T00:42:55;100077.44;;;20.06;100.00
64683;BME280;51107;47.652;19.016;2023-06-22T00:45:24;100078.25;;;20.07;100.00
64683;BME280;51107;47.652;19.016;2023-06-22T00:47:55;100078.06;;;20.01;100.00
64683;BME280;51107;47.652;19.016;2023-06-22T00:50:30;100081.31;;;20.03;100.00
64683;BME280;51107;47.652;19.016;2023-06-22T00:53:06;100086.81;;;19.95;100.00
64683;BME280;51107;47.652;19.016;2023-06-22T00:55:42;100096.16;;;20.05;100.00
64683;BME280;51107;47.652;19.016;2023-06-22T00:58:15;100095.16;;;20.06;100.00
64683;BME280;51107;47.652;19.016;2023-06-22T01:00:44;100105.09;;;20.10;100.00
64683;BME280;51107;47.652;19.016;2023-06-22T01:03:12;100097.75;;;20.12;100.00
64683;BME280;51107;47.652;19.016;2023-06-22T01:05:41;100087.22;;;20.06;100.00
64683;BME280;51107;47.652;19.016;2023-06-22T01:10:44;100085.56;;;19.78;100.00
64683;BME280;51107;47.652;19.016;2023-06-22T01:16:21;100084.75;;;19.71;100.00
64683;BME280;51107;47.652;19.016;2023-06-22T01:18:54;100095.09;;;19.45;100.00
64683;BME280;51107;47.652;19.016;2023-06-22T01:21:24;100088.81;;;19.66;100.00
64683;BME280;51107;47.652;19.016;2023-06-22T01:26:42;100097.00;;;19.85;100.00
64683;BME280;51107;47.652;19.016;2023-06-22T01:29:12;100097.78;;;19.92;100.00
64683;BME280;51107;47.652;19.016;2023-06-22T01:31:42;100100.66;;;19.97;100.00
64683;BME280;51107;47.652;19.016;2023-06-22T01:34:14;100104.50;;;19.95;100.00
64683;BME280;51107;47.652;19.016;2023-06-22T01:36:43;100113.03;;;19.90;100.00
64683;BME280;51107;47.652;19.016;2023-06-22T01:39:12;100111.22;;;19.84;100.00
64683;BME280;51107;47.652;19.016;2023-06-22T01:41:43;100114.87;;;19.83;100.00
64683;BME280;51107;47.652;19.016;2023-06-22T01:44:12;100101.63;;;19.76;100.00
64683;BME280;51107;47.652;19.016;2023-06-22T01:46:40;100105.69;;;19.79;100.00
64683;BME280;51107;47.652;19.016;2023-06-22T01:49:09;100103.47;;;19.76;100.00
64683;BME280;51107;47.652;19.016;2023-06-22T01:51:38;100105.09;;;19.77;100.00
64683;BME280;51107;47.652;19.016;2023-06-22T01:54:06;100118.53;;;19.82;100.00
64683;BME280;51107;47.652;19.016;2023-06-22T01:56:36;100114.47;;;19.86;100.00
64683;BME280;51107;47.652;19.016;2023-06-22T01:59:11;100107.75;;;19.83;100.00
64683;BME280;51107;47.652;19.016;2023-06-22T02:02:02;100113.81;;;19.77;100.00
64683;BME280;51107;47.652;19.016;2023-06-22T02:04:51;100114.25;;;19.74;100.00
64683;BME280;51107;47.652;19.016;2023-06-22T02:07:20;100120.97;;;19.83;100.00
64683;BME280;51107;47.652;19.016;2023-06-22T02:09:52;100111.44;;;19.82;100.00
64683;BME280;51107;47.652;19.016;2023-06-22T02:12:25;100120.75;;;19.72;100.00
64683;BME280;51107;47.652;19.016;2023-06-22T02:14:56;100122.22;;;19.81;100.00
64683;BME280;51107;47.652;19.016;2023-06-22T02:17:26;100133.97;;;19.78;100.00
64683;BME280;51107;47.652;19.016;2023-06-22T02:19:54;100124.59;;;19.69;100.00
64683;BME280;51107;47.652;19.016;2023-06-22T02:22:22;100121.16;;;19.75;100.00
64683;BME280;51107;47.652;19.016;2023-06-22T02:24:51;100105.88;;;19.71;100.00
64683;BME280;51107;47.652;19.016;2023-06-22T02:27:21;100117.50;;;19.63;100.00
64683;BME280;51107;47.652;19.016;2023-06-22T02:30:08;100116.44;;;19.57;100.00
64683;BME280;51107;47.652;19.016;2023-06-22T02:33:03;100120.88;;;19.43;100.00
64683;BME280;51107;47.652;19.016;2023-06-22T02:35:31;100124.13;;;19.39;100.00
64683;BME280;51107;47.652;19.016;2023-06-22T02:38:00;100118.06;;;19.38;100.00
64683;BME280;51107;47.652;19.016;2023-06-22T02:40:30;100124.16;;;19.45;100.00
64683;BME280;51107;47.652;19.016;2023-06-22T02:42:58;100124.94;;;19.26;100.00
64683;BME280;51107;47.652;19.016;2023-06-22T02:45:30;100124.72;;;19.27;100.00
64683;BME280;51107;47.652;19.016;2023-06-22T02:47:58;100127.75;;;19.24;100.00
64683;BME280;51107;47.652;19.016;2023-06-22T02:50:27;100122.09;;;19.27;100.00
64683;BME280;51107;47.652;19.016;2023-06-22T02:52:57;100131.06;;;19.40;100.00
64683;BME280;51107;47.652;19.016;2023-06-22T02:55:27;100125.78;;;19.40;100.00
64683;BME280;51107;47.652;19.016;2023-06-22T02:57:56;100132.63;;;19.21;100.00
64683;BME280;51107;47.652;19.016;2023-06-22T03:00:25;100133.19;;;19.16;100.00
64683;BME280;51107;47.652;19.016;2023-06-22T03:02:59;100139.34;;;19.37;100.00
64683;BME280;51107;47.652;19.016;2023-06-22T03:05:28;100137.94;;;19.41;100.00
64683;BME280;51107;47.652;19.016;2023-06-22T03:07:57;100130.66;;;19.43;100.00
64683;BME280;51107;47.652;19.016;2023-06-22T03:10:26;100127.03;;;19.50;100.00
64683;BME280;51107;47.652;19.016;2023-06-22T03:12:54;100133.72;;;19.53;100.00
64683;BME280;51107;47.652;19.016;2023-06-22T03:15:23;100136.19;;;19.55;100.00
64683;BME280;51107;47.652;19.016;2023-06-22T03:17:51;100137.41;;;19.59;100.00
64683;BME280;51107;47.652;19.016;2023-06-22T03:20:19;100128.84;;;19.63;100.00
64683;BME280;51107;47.652;19.016;2023-06-22T03:22:48;100137.56;;;19.57;100.00
64683;BME280;51107;47.652;19.016;2023-06-22T03:25:17;100135.56;;;19.66;100.00
64683;BME280;51107;47.652;19.016;2023-06-22T03:27:45;100130.31;;;19.73;100.00
64683;BME280;51107;47.652;19.016;2023-06-22T03:30:14;100130.28;;;19.66;100.00
64683;BME280;51107;47.652;19.016;2023-06-22T03:32:43;100131.50;;;19.70;100.00
64683;BME280;51107;47.652;19.016;2023-06-22T03:35:11;100133.94;;;19.65;100.00
64683;BME280;51107;47.652;19.016;2023-06-22T03:37:42;100133.16;;;19.71;100.00
64683;BME280;51107;47.652;19.016;2023-06-22T03:40:10;100134.16;;;19.77;100.00
64683;BME280;51107;47.652;19.016;2023-06-22T03:42:40;100134.38;;;19.82;100.00
64683;BME280;51107;47.652;19.016;2023-06-22T03:45:09;100129.47;;;19.79;100.00
64683;BME280;51107;47.652;19.016;2023-06-22T03:47:38;100124.84;;;19.81;100.00
64683;BME280;51107;47.652;19.016;2023-06-22T03:50:07;100123.22;;;19.80;100.00
64683;BME280;51107;47.652;19.016;2023-06-22T03:52:35;100129.69;;;19.71;100.00
64683;BME280;51107;47.652;19.016;2023-06-22T03:55:04;100144.16;;;19.81;100.00
64683;BME280;51107;47.652;19.016;2023-06-22T03:57:33;100136.44;;;19.80;100.00
64683;BME280;51107;47.652;19.016;2023-06-22T04:00:01;100141.50;;;19.81;100.00
64683;BME280;51107;47.652;19.016;2023-06-22T04:02:38;100136.81;;;19.77;100.00
64683;BME280;51107;47.652;19.016;2023-06-22T04:05:09;100152.87;;;19.82;100.00
64683;BME280;51107;47.652;19.016;2023-06-22T04:07:37;100151.44;;;19.79;100.00
64683;BME280;51107;47.652;19.016;2023-06-22T04:10:05;100158.38;;;19.80;100.00
64683;BME280;51107;47.652;19.016;2023-06-22T04:12:34;100153.50;;;19.84;100.00
64683;BME280;51107;47.652;19.016;2023-06-22T04:15:02;100146.56;;;19.76;100.00
64683;BME280;51107;47.652;19.016;2023-06-22T04:17:30;100147.75;;;19.74;100.00
64683;BME280;51107;47.652;19.016;2023-06-22T04:19:59;100147.38;;;19.77;100.00
64683;BME280;51107;47.652;19.016;2023-06-22T04:22:27;100140.72;;;19.81;100.00
64683;BME280;51107;47.652;19.016;2023-06-22T04:24:55;100143.34;;;19.88;100.00
64683;BME280;51107;47.652;19.016;2023-06-22T04:27:23;100142.94;;;19.84;100.00
64683;BME280;51107;47.652;19.016;2023-06-22T04:29:52;100151.28;;;19.94;100.00
64683;BME280;51107;47.652;19.016;2023-06-22T04:32:20;100148.84;;;19.93;100.00
64683;BME280;51107;47.652;19.016;2023-06-22T04:34:49;100144.78;;;20.03;100.00
64683;BME280;51107;47.652;19.016;2023-06-22T04:37:17;100146.19;;;19.99;100.00
64683;BME280;51107;47.652;19.016;2023-06-22T04:39:45;100153.13;;;20.14;100.00
64683;BME280;51107;47.652;19.016;2023-06-22T04:42:14;100155.78;;;20.14;100.00
64683;BME280;51107;47.652;19.016;2023-06-22T04:44:42;100160.84;;;20.09;100.00
64683;BME280;51107;47.652;19.016;2023-06-22T04:47:10;100162.06;;;20.13;100.00
64683;BME280;51107;47.652;19.016;2023-06-22T04:49:38;100157.59;;;20.20;100.00
64683;BME280;51107;47.652;19.016;2023-06-22T04:52:11;100163.88;;;20.19;100.00
64683;BME280;51107;47.652;19.016;2023-06-22T04:54:40;100158.22;;;20.22;100.00
64683;BME280;51107;47.652;19.016;2023-06-22T04:57:16;100159.00;;;20.23;100.00
64683;BME280;51107;47.652;19.016;2023-06-22T04:59:44;100155.53;;;20.35;100.00
64683;BME280;51107;47.652;19.016;2023-06-22T05:02:12;100163.28;;;20.30;100.00
64683;BME280;51107;47.652;19.016;2023-06-22T05:04:40;100162.25;;;20.31;100.00
64683;BME280;51107;47.652;19.016;2023-06-22T05:07:10;100163.88;;;20.32;100.00
64683;BME280;51107;47.652;19.016;2023-06-22T05:09:38;100169.59;;;20.36;100.00
64683;BME280;51107;47.652;19.016;2023-06-22T05:12:06;100167.31;;;20.40;100.00
64683;BME280;51107;47.652;19.016;2023-06-22T05:14:38;100174.25;;;20.47;100.00
64683;BME280;51107;47.652;19.016;2023-06-22T05:17:06;100163.25;;;20.50;100.00
64683;BME280;51107;47.652;19.016;2023-06-22T05:19:44;100166.50;;;20.52;100.00
64683;BME280;51107;47.652;19.016;2023-06-22T05:22:16;100164.44;;;20.61;100.00
64683;BME280;51107;47.652;19.016;2023-06-22T05:24:44;100175.44;;;20.65;100.00
64683;BME280;51107;47.652;19.016;2023-06-22T05:27:13;100173.41;;;20.74;100.00
64683;BME280;51107;47.652;19.016;2023-06-22T05:29:42;100181.56;;;20.79;100.00
64683;BME280;51107;47.652;19.016;2023-06-22T05:32:11;100179.06;;;20.84;100.00
64683;BME280;51107;47.652;19.016;2023-06-22T05:34:39;100181.31;;;20.87;100.00
64683;BME280;51107;47.652;19.016;2023-06-22T05:37:07;100184.75;;;20.94;100.00
64683;BME280;51107;47.652;19.016;2023-06-22T05:39:38;100177.59;;;21.01;100.00
64683;BME280;51107;47.652;19.016;2023-06-22T05:42:07;100195.72;;;21.04;100.00
64683;BME280;51107;47.652;19.016;2023-06-22T05:44:38;100197.75;;;21.09;100.00
64683;BME280;51107;47.652;19.016;2023-06-22T05:47:08;100190.56;;;21.23;100.00
64683;BME280;51107;47.652;19.016;2023-06-22T05:49:36;100190.50;;;21.36;100.00
64683;BME280;51107;47.652;19.016;2023-06-22T05:52:05;100192.47;;;21.48;100.00
64683;BME280;51107;47.652;19.016;2023-06-22T05:54:33;100199.81;;;21.52;100.00
64683;BME280;51107;47.652;19.016;2023-06-22T05:57:01;100196.56;;;21.57;100.00
64683;BME280;51107;47.652;19.016;2023-06-22T05:59:30;100206.72;;;21.60;100.00
64683;BME280;51107;47.652;19.016;2023-06-22T06:01:58;100197.09;;;21.66;100.00
64683;BME280;51107;47.652;19.016;2023-06-22T06:04:27;100203.81;;;21.68;100.00
64683;BME280;51107;47.652;19.016;2023-06-22T06:06:55;100201.38;;;21.67;99.27
64683;BME280;51107;47.652;19.016;2023-06-22T06:09:24;100197.06;;;21.73;99.24
64683;BME280;51107;47.652;19.016;2023-06-22T06:11:52;100198.81;;;21.85;98.79
64683;BME280;51107;47.652;19.016;2023-06-22T06:14:20;100202.56;;;22.03;96.48
64683;BME280;51107;47.652;19.016;2023-06-22T06:16:49;100195.59;;;22.09;93.80
64683;BME280;51107;47.652;19.016;2023-06-22T06:19:18;100210.78;;;22.20;96.70
64683;BME280;51107;47.652;19.016;2023-06-22T06:21:46;100208.47;;;22.30;94.86
64683;BME280;51107;47.652;19.016;2023-06-22T06:24:14;100203.28;;;22.42;94.84
64683;BME280;51107;47.652;19.016;2023-06-22T06:26:42;100197.56;;;22.64;97.13
64683;BME280;51107;47.652;19.016;2023-06-22T06:29:11;100196.91;;;22.68;93.85
64683;BME280;51107;47.652;19.016;2023-06-22T06:31:39;100197.44;;;22.77;95.54
64683;BME280;51107;47.652;19.016;2023-06-22T06:34:08;100202.69;;;22.84;93.77
64683;BME280;51107;47.652;19.016;2023-06-22T06:36:36;100208.91;;;23.15;93.46
64683;BME280;51107;47.652;19.016;2023-06-22T06:39:05;100199.94;;;23.28;91.28
64683;BME280;51107;47.652;19.016;2023-06-22T06:41:33;100202.97;;;23.31;88.84
64683;BME280;51107;47.652;19.016;2023-06-22T06:44:01;100201.84;;;23.39;88.17
64683;BME280;51107;47.652;19.016;2023-06-22T06:46:30;100198.44;;;23.62;85.01
64683;BME280;51107;47.652;19.016;2023-06-22T06:48:59;100193.84;;;24.00;82.60
64683;BME280;51107;47.652;19.016;2023-06-22T06:51:27;100198.38;;;24.23;80.37
64683;BME280;51107;47.652;19.016;2023-06-22T06:53:55;100199.87;;;24.07;83.02
64683;BME280;51107;47.652;19.016;2023-06-22T06:56:24;100190.38;;;24.11;81.77
64683;BME280;51107;47.652;19.016;2023-06-22T06:58:52;100198.81;;;24.43;84.74
64683;BME280;51107;47.652;19.016;2023-06-22T07:01:20;100200.56;;;24.50;81.28
64683;BME280;51107;47.652;19.016;2023-06-22T07:03:50;100190.84;;;24.55;80.96
64683;BME280;51107;47.652;19.016;2023-06-22T07:06:18;100189.13;;;24.73;78.75
64683;BME280;51107;47.652;19.016;2023-06-22T07:08:46;100194.06;;;24.93;84.10
64683;BME280;51107;47.652;19.016;2023-06-22T07:11:14;100196.56;;;25.12;79.30
64683;BME280;51107;47.652;19.016;2023-06-22T07:13:43;100194.62;;;25.36;79.96
64683;BME280;51107;47.652;19.016;2023-06-22T07:16:11;100192.19;;;25.63;77.64
64683;BME280;51107;47.652;19.016;2023-06-22T07:18:39;100189.13;;;25.71;77.30
64683;BME280;51107;47.652;19.016;2023-06-22T07:21:08;100203.09;;;26.24;75.46
64683;BME280;51107;47.652;19.016;2023-06-22T07:23:37;100195.41;;;26.28;71.06
64683;BME280;51107;47.652;19.016;2023-06-22T07:26:05;100205.44;;;26.21;71.61
64683;BME280;51107;47.652;19.016;2023-06-22T07:28:34;100193.44;;;26.40;70.41
64683;BME280;51107;47.652;19.016;2023-06-22T07:31:06;100203.53;;;26.55;75.03
64683;BME280;51107;47.652;19.016;2023-06-22T07:33:35;100193.47;;;26.80;69.27
64683;BME280;51107;47.652;19.016;2023-06-22T07:36:03;100192.59;;;26.96;65.43
64683;BME280;51107;47.652;19.016;2023-06-22T07:38:36;100202.84;;;27.26;65.12
64683;BME280;51107;47.652;19.016;2023-06-22T07:41:04;100194.19;;;27.69;64.39
64683;BME280;51107;47.652;19.016;2023-06-22T07:43:33;100200.94;;;27.76;64.33
64683;BME280;51107;47.652;19.016;2023-06-22T07:46:05;100194.59;;;27.88;63.33
64683;BME280;51107;47.652;19.016;2023-06-22T07:48:37;100200.59;;;28.00;62.27
64683;BME280;51107;47.652;19.016;2023-06-22T07:51:05;100197.88;;;28.33;59.34
64683;BME280;51107;47.652;19.016;2023-06-22T07:53:34;100198.75;;;28.43;60.02
64683;BME280;51107;47.652;19.016;2023-06-22T07:56:03;100199.22;;;28.30;60.36
64683;BME280;51107;47.652;19.016;2023-06-22T07:58:35;100198.84;;;28.59;64.59
64683;BME280;51107;47.652;19.016;2023-06-22T08:01:04;100188.81;;;28.92;60.46
64683;BME280;51107;47.652;19.016;2023-06-22T08:03:33;100188.81;;;28.92;63.09
64683;BME280;51107;47.652;19.016;2023-06-22T08:06:02;100190.75;;;29.07;61.27
64683;BME280;51107;47.652;19.016;2023-06-22T08:08:30;100185.69;;;29.15;57.92
64683;BME280;51107;47.652;19.016;2023-06-22T08:10:59;100182.47;;;29.13;57.72
64683;BME280;51107;47.652;19.016;2023-06-22T08:13:27;100184.06;;;29.14;58.81
64683;BME280;51107;47.652;19.016;2023-06-22T08:15:55;100180.06;;;29.22;58.13
64683;BME280;51107;47.652;19.016;2023-06-22T08:18:23;100177.19;;;29.44;57.15
64683;BME280;51107;47.652;19.016;2023-06-22T08:20:52;100173.56;;;29.08;54.90
64683;BME280;51107;47.652;19.016;2023-06-22T08:23:20;100170.97;;;29.34;54.61
64683;BME280;51107;47.652;19.016;2023-06-22T08:25:49;100174.50;;;29.75;54.84
64683;BME280;51107;47.652;19.016;2023-06-22T08:28:18;100170.75;;;29.92;50.92
64683;BME280;51107;47.652;19.016;2023-06-22T08:30:46;100177.50;;;29.89;51.98
64683;BME280;51107;47.652;19.016;2023-06-22T08:33:15;100168.06;;;29.66;53.52
64683;BME280;51107;47.652;19.016;2023-06-22T08:35:55;100170.75;;;29.81;53.20
64683;BME280;51107;47.652;19.016;2023-06-22T08:38:24;100170.72;;;30.23;51.66
64683;BME280;51107;47.652;19.016;2023-06-22T08:40:54;100174.19;;;30.28;55.81
64683;BME280;51107;47.652;19.016;2023-06-22T08:43:22;100180.88;;;30.57;50.71
64683;BME280;51107;47.652;19.016;2023-06-22T08:45:51;100176.59;;;30.51;50.79
64683;BME280;51107;47.652;19.016;2023-06-22T08:48:19;100187.06;;;30.52;52.18
64683;BME280;51107;47.652;19.016;2023-06-22T08:50:47;100171.50;;;30.44;53.08
64683;BME280;51107;47.652;19.016;2023-06-22T08:53:15;100173.09;;;30.35;51.48
64683;BME280;51107;47.652;19.016;2023-06-22T08:55:43;100164.25;;;30.39;53.00
64683;BME280;51107;47.652;19.016;2023-06-22T08:58:12;100166.31;;;30.68;55.49
64683;BME280;51107;47.652;19.016;2023-06-22T09:00:40;100148.47;;;30.82;51.27
64683;BME280;51107;47.652;19.016;2023-06-22T09:03:08;100161.44;;;30.75;53.69
64683;BME280;51107;47.652;19.016;2023-06-22T09:05:37;100155.44;;;30.94;53.66
64683;BME280;51107;47.652;19.016;2023-06-22T09:08:05;100157.22;;;30.54;50.00
64683;BME280;51107;47.652;19.016;2023-06-22T09:10:34;100155.34;;;30.54;52.72
64683;BME280;51107;47.652;19.016;2023-06-22T09:13:02;100155.87;;;30.56;55.36
64683;BME280;51107;47.652;19.016;2023-06-22T09:15:31;100155.22;;;30.80;52.65
64683;BME280;51107;47.652;19.016;2023-06-22T09:17:59;100141.78;;;30.80;52.57
64683;BME280;51107;47.652;19.016;2023-06-22T09:20:28;100142.41;;;31.16;53.86
64683;BME280;51107;47.652;19.016;2023-06-22T09:22:57;100146.59;;;31.33;51.72
64683;BME280;51107;47.652;19.016;2023-06-22T09:25:25;100141.16;;;31.04;49.78
64683;BME280;51107;47.652;19.016;2023-06-22T09:27:54;100144.50;;;30.75;51.18
64683;BME280;51107;47.652;19.016;2023-06-22T09:30:23;100140.94;;;30.90;51.24
64683;BME280;51107;47.652;19.016;2023-06-22T09:32:51;100136.66;;;30.83;53.12
64683;BME280;51107;47.652;19.016;2023-06-22T09:35:20;100139.09;;;30.80;51.90
64683;BME280;51107;47.652;19.016;2023-06-22T09:37:48;100136.19;;;30.71;51.33
64683;BME280;51107;47.652;19.016;2023-06-22T09:40:16;100128.87;;;30.77;51.23
64683;BME280;51107;47.652;19.016;2023-06-22T09:42:45;100124.72;;;31.00;52.04
64683;BME280;51107;47.652;19.016;2023-06-22T09:45:13;100133.94;;;31.33;54.33
64683;BME280;51107;47.652;19.016;2023-06-22T09:47:42;100142.25;;;31.37;50.55
64683;BME280;51107;47.652;19.016;2023-06-22T09:50:10;100131.06;;;31.25;51.61
64683;BME280;51107;47.652;19.016;2023-06-22T09:52:39;100137.03;;;31.51;50.65
64683;BME280;51107;47.652;19.016;2023-06-22T09:55:10;100126.31;;;31.46;51.55
64683;BME280;51107;47.652;19.016;2023-06-22T09:57:39;100125.50;;;31.45;48.08
64683;BME280;51107;47.652;19.016;2023-06-22T10:00:07;100124.63;;;31.21;50.72
64683;BME280;51107;47.652;19.016;2023-06-22T10:02:37;100136.16;;;31.26;53.06
64683;BME280;51107;47.652;19.016;2023-06-22T10:05:06;100137.78;;;31.22;51.31
64683;BME280;51107;47.652;19.016;2023-06-22T10:07:36;100123.91;;;31.44;50.37
64683;BME280;51107;47.652;19.016;2023-06-22T10:10:13;100130.97;;;31.35;49.01
64683;BME280;51107;47.652;19.016;2023-06-22T10:12:45;100135.87;;;31.28;49.86
64683;BME280;51107;47.652;19.016;2023-06-22T10:15:15;100134.69;;;30.99;48.55
64683;BME280;51107;47.652;19.016;2023-06-22T10:17:44;100129.56;;;31.03;48.37
64683;BME280;51107;47.652;19.016;2023-06-22T10:20:13;100130.09;;;31.00;49.38
64683;BME280;51107;47.652;19.016;2023-06-22T10:22:43;100131.38;;;31.18;48.89
64683;BME280;51107;47.652;19.016;2023-06-22T10:25:13;100128.66;;;31.18;48.24
64683;BME280;51107;47.652;19.016;2023-06-22T10:27:41;100120.09;;;31.16;52.27
64683;BME280;51107;47.652;19.016;2023-06-22T10:30:11;100122.44;;;31.23;48.83
64683;BME280;51107;47.652;19.016;2023-06-22T10:32:42;100118.69;;;31.19;48.04
64683;BME280;51107;47.652;19.016;2023-06-22T10:35:13;100118.28;;;31.41;49.12
64683;BME280;51107;47.652;19.016;2023-06-22T10:37:45;100120.41;;;31.44;48.63
64683;BME280;51107;47.652;19.016;2023-06-22T10:40:14;100117.88;;;31.58;47.11
64683;BME280;51107;47.652;19.016;2023-06-22T10:42:44;100114.66;;;31.56;47.29
64683;BME280;51107;47.652;19.016;2023-06-22T10:45:12;100112.78;;;31.56;48.57
64683;BME280;51107;47.652;19.016;2023-06-22T10:47:41;100114.72;;;31.50;48.74
64683;BME280;51107;47.652;19.016;2023-06-22T10:50:13;100111.69;;;31.23;49.87
64683;BME280;51107;47.652;19.016;2023-06-22T10:52:41;100121.06;;;31.30;49.31
64683;BME280;51107;47.652;19.016;2023-06-22T10:55:10;100110.09;;;31.22;48.07
64683;BME280;51107;47.652;19.016;2023-06-22T10:57:39;100114.91;;;31.25;46.26
64683;BME280;51107;47.652;19.016;2023-06-22T11:00:12;100112.06;;;31.06;49.03
64683;BME280;51107;47.652;19.016;2023-06-22T11:02:41;100116.94;;;30.98;49.29
64683;BME280;51107;47.652;19.016;2023-06-22T11:05:10;100104.75;;;31.16;50.78
64683;BME280;51107;47.652;19.016;2023-06-22T11:07:42;100109.06;;;31.12;50.63
64683;BME280;51107;47.652;19.016;2023-06-22T11:10:16;100103.16;;;31.10;50.37
64683;BME280;51107;47.652;19.016;2023-06-22T11:12:44;100104.75;;;31.11;51.50
64683;BME280;51107;47.652;19.016;2023-06-22T11:15:13;100101.87;;;31.03;49.95
64683;BME280;51107;47.652;19.016;2023-06-22T11:17:41;100098.03;;;31.14;49.81
64683;BME280;51107;47.652;19.016;2023-06-22T11:20:10;100091.53;;;31.20;49.86
64683;BME280;51107;47.652;19.016;2023-06-22T11:22:42;100086.19;;;31.15;53.42
64683;BME280;51107;47.652;19.016;2023-06-22T11:25:11;100092.84;;;31.23;50.02
64683;BME280;51107;47.652;19.016;2023-06-22T11:27:40;100079.44;;;31.17;50.35
64683;BME280;51107;47.652;19.016;2023-06-22T11:30:09;100077.28;;;31.14;49.68
64683;BME280;51107;47.652;19.016;2023-06-22T11:32:38;100090.53;;;31.11;49.85
64683;BME280;51107;47.652;19.016;2023-06-22T11:35:07;100086.53;;;31.03;51.29
64683;BME280;51107;47.652;19.016;2023-06-22T11:37:35;100094.59;;;31.03;48.12
64683;BME280;51107;47.652;19.016;2023-06-22T11:40:04;100082.47;;;31.06;48.50
64683;BME280;51107;47.652;19.016;2023-06-22T11:42:35;100087.59;;;31.02;48.54
64683;BME280;51107;47.652;19.016;2023-06-22T11:45:04;100080.34;;;31.03;50.19
64683;BME280;51107;47.652;19.016;2023-06-22T11:47:33;100079.91;;;30.85;52.35
64683;BME280;51107;47.652;19.016;2023-06-22T11:50:02;100076.34;;;30.95;51.35
64683;BME280;51107;47.652;19.016;2023-06-22T11:52:30;100079.06;;;30.90;51.23
64683;BME280;51107;47.652;19.016;2023-06-22T11:54:59;100076.62;;;30.93;49.03
64683;BME280;51107;47.652;19.016;2023-06-22T11:57:28;100078.50;;;30.93;48.58
64683;BME280;51107;47.652;19.016;2023-06-22T11:59:56;100072.66;;;30.86;49.41
64683;BME280;51107;47.652;19.016;2023-06-22T12:02:24;100068.06;;;30.86;51.60
64683;BME280;51107;47.652;19.016;2023-06-22T12:04:53;100071.78;;;30.95;48.98
64683;BME280;51107;47.652;19.016;2023-06-22T12:07:24;100067.75;;;30.93;52.72
64683;BME280;51107;47.652;19.016;2023-06-22T12:09:52;100066.69;;;30.94;51.20
64683;BME280;51107;47.652;19.016;2023-06-22T12:12:21;100060.19;;;30.95;51.94
64683;BME280;51107;47.652;19.016;2023-06-22T12:14:49;100059.16;;;30.91;52.02
64683;BME280;51107;47.652;19.016;2023-06-22T12:17:17;100055.62;;;30.95;50.97
64683;BME280;51107;47.652;19.016;2023-06-22T12:19:45;100060.59;;;30.78;49.93
64683;BME280;51107;47.652;19.016;2023-06-22T12:22:13;100053.87;;;30.75;50.37
64683;BME280;51107;47.652;19.016;2023-06-22T12:24:42;100050.91;;;30.77;51.63
64683;BME280;51107;47.652;19.016;2023-06-22T12:27:10;100042.59;;;30.73;51.19
64683;BME280;51107;47.652;19.016;2023-06-22T12:29:38;100038.28;;;30.77;49.63
64683;BME280;51107;47.652;19.016;2023-06-22T12:32:07;100037.75;;;30.70;51.56
64683;BME280;51107;47.652;19.016;2023-06-22T12:34:35;100034.03;;;30.66;51.88
64683;BME280;51107;47.652;19.016;2023-06-22T12:37:04;100035.44;;;30.58;52.32
64683;BME280;51107;47.652;19.016;2023-06-22T12:39:33;100036.53;;;30.52;51.71
64683;BME280;51107;47.652;19.016;2023-06-22T12:42:02;100046.22;;;30.48;52.07
64683;BME280;51107;47.652;19.016;2023-06-22T12:44:30;100032.78;;;30.43;52.35
64683;BME280;51107;47.652;19.016;2023-06-22T12:46:59;100026.63;;;30.37;52.21
64683;BME280;51107;47.652;19.016;2023-06-22T12:49:27;100025.56;;;30.38;52.46
64683;BME280;51107;47.652;19.016;2023-06-22T12:51:56;100029.81;;;30.49;50.82
64683;BME280;51107;47.652;19.016;2023-06-22T12:54:24;100032.78;;;30.43;51.55